sensor_id;sensor_type;location;lat;lon;timestamp;pressure;altitude;pressure_sealevel;temperature;humidity
45813;BME280;31519;45.408;10.962;2023-07-22T00:00:03;100225.25;;;25.93;84.81
45813;BME280;31519;45.408;10.962;2023-07-22T00:02:53;100233.28;;;25.77;85.54
45813;BME280;31519;45.408;10.962;2023-07-22T00:05:22;100232.53;;;25.99;84.38
45813;BME280;31519;45.408;10.962;2023-07-22T00:07:51;100225.00;;;25.84;85.88
45813;BME280;31519;45.408;10.962;2023-07-22T00:10:20;100226.59;;;25.81;85.45
45813;BME280;31519;45.408;10.962;2023-07-22T00:12:48;100225.16;;;25.73;85.46
45813;BME280;31519;45.408;10.962;2023-07-22T00:15:16;100222.63;;;25.86;83.99
45813;BME280;31519;45.408;10.962;2023-07-22T00:17:44;100217.97;;;25.59;85.06
45813;BME280;31519;45.408;10.962;2023-07-22T00:20:12;100209.72;;;25.63;85.36
45813;BME280;31519;45.408;10.962;2023-07-22T00:22:42;100212.56;;;25.83;84.25
45813;BME280;31519;45.408;10.962;2023-07-22T00:25:10;100211.13;;;25.75;85.81
45813;BME280;31519;45.408;10.962;2023-07-22T00:27:39;100213.72;;;25.82;86.24
45813;BME280;31519;45.408;10.962;2023-07-22T00:30:08;100208.44;;;25.94;85.08
45813;BME280;31519;45.408;10.962;2023-07-22T00:32:36;100206.69;;;26.08;83.88
45813;BME280;31519;45.408;10.962;2023-07-22T00:35:08;100203.50;;;25.89;84.70
45813;BME280;31519;45.408;10.962;2023-07-22T00:37:39;100208.31;;;25.51;86.45
45813;BME280;31519;45.408;10.962;2023-07-22T00:40:08;100207.00;;;25.63;84.02
45813;BME280;31519;45.408;10.962;2023-07-22T00:42:40;100212.63;;;25.79;84.85
45813;BME280;31519;45.408;10.962;2023-07-22T00:45:08;100209.50;;;25.77;85.17
45813;BME280;31519;45.408;10.962;2023-07-22T00:47:36;100210.41;;;25.71;86.12
45813;BME280;31519;45.408;10.962;2023-07-22T00:50:06;100206.31;;;25.82;85.77
45813;BME280;31519;45.408;10.962;2023-07-22T00:52:35;100201.75;;;25.99;85.28
45813;BME280;31519;45.408;10.962;2023-07-22T00:55:03;100201.94;;;25.88;86.31
45813;BME280;31519;45.408;10.962;2023-07-22T00:57:33;100199.44;;;25.74;85.64
45813;BME280;31519;45.408;10.962;2023-07-22T01:00:01;100202.16;;;25.47;86.29
45813;BME280;31519;45.408;10.962;2023-07-22T01:02:29;100201.69;;;25.79;83.72
45813;BME280;31519;45.408;10.962;2023-07-22T01:04:57;100196.38;;;25.42;85.46
45813;BME280;31519;45.408;10.962;2023-07-22T01:07:26;100192.16;;;25.37;87.24
45813;BME280;31519;45.408;10.962;2023-07-22T01:09:57;100185.72;;;24.94;89.13
45813;BME280;31519;45.408;10.962;2023-07-22T01:12:28;100193.44;;;24.99;88.91
45813;BME280;31519;45.408;10.962;2023-07-22T01:14:56;100189.31;;;25.17;88.90
45813;BME280;31519;45.408;10.962;2023-07-22T01:17:24;100196.38;;;24.81;90.06
45813;BME280;31519;45.408;10.962;2023-07-22T01:19:56;100198.09;;;25.02;89.81
45813;BME280;31519;45.408;10.962;2023-07-22T01:22:24;100206.00;;;24.55;92.29
45813;BME280;31519;45.408;10.962;2023-07-22T01:24:52;100206.09;;;24.45;93.22
45813;BME280;31519;45.408;10.962;2023-07-22T01:27:22;100198.88;;;24.27;93.41
45813;BME280;31519;45.408;10.962;2023-07-22T01:29:50;100198.94;;;24.24;94.80
45813;BME280;31519;45.408;10.962;2023-07-22T01:32:19;100205.13;;;24.24;94.41
45813;BME280;31519;45.408;10.962;2023-07-22T01:34:50;100207.56;;;24.56;92.39
45813;BME280;31519;45.408;10.962;2023-07-22T01:37:18;100205.94;;;24.21;94.30
45813;BME280;31519;45.408;10.962;2023-07-22T01:39:46;100219.69;;;24.48;92.51
45813;BME280;31519;45.408;10.962;2023-07-22T01:42:14;100227.03;;;24.89;89.97
45813;BME280;31519;45.408;10.962;2023-07-22T01:44:42;100222.22;;;24.66;90.08
45813;BME280;31519;45.408;10.962;2023-07-22T01:47:11;100221.59;;;24.85;89.55
45813;BME280;31519;45.408;10.962;2023-07-22T01:49:38;100220.88;;;24.47;91.65
45813;BME280;31519;45.408;10.962;2023-07-22T01:52:07;100227.41;;;24.53;91.62
45813;BME280;31519;45.408;10.962;2023-07-22T01:54:35;100221.25;;;24.87;88.96
45813;BME280;31519;45.408;10.962;2023-07-22T01:57:03;100224.13;;;24.69;88.65
45813;BME280;31519;45.408;10.962;2023-07-22T01:59:31;100217.75;;;25.16;87.31
45813;BME280;31519;45.408;10.962;2023-07-22T02:02:00;100225.63;;;25.11;87.67
45813;BME280;31519;45.408;10.962;2023-07-22T02:04:28;100221.25;;;24.83;88.57
45813;BME280;31519;45.408;10.962;2023-07-22T02:06:56;100220.63;;;25.63;85.27
45813;BME280;31519;45.408;10.962;2023-07-22T02:09:24;100224.25;;;25.53;85.96
45813;BME280;31519;45.408;10.962;2023-07-22T02:11:52;100229.56;;;25.90;84.11
45813;BME280;31519;45.408;10.962;2023-07-22T02:14:21;100239.44;;;25.84;84.35
45813;BME280;31519;45.408;10.962;2023-07-22T02:16:49;100241.09;;;26.01;83.10
45813;BME280;31519;45.408;10.962;2023-07-22T02:19:17;100242.84;;;25.65;84.97
45813;BME280;31519;45.408;10.962;2023-07-22T02:21:45;100250.69;;;25.59;85.49
45813;BME280;31519;45.408;10.962;2023-07-22T02:24:14;100256.31;;;25.45;86.39
45813;BME280;31519;45.408;10.962;2023-07-22T02:26:43;100262.66;;;25.69;85.82
45813;BME280;31519;45.408;10.962;2023-07-22T02:29:11;100261.19;;;25.31;87.63
45813;BME280;31519;45.408;10.962;2023-07-22T02:31:40;100268.00;;;25.46;87.25
45813;BME280;31519;45.408;10.962;2023-07-22T02:34:08;100267.22;;;25.76;85.55
45813;BME280;31519;45.408;10.962;2023-07-22T02:36:36;100272.84;;;25.65;85.56
45813;BME280;31519;45.408;10.962;2023-07-22T02:39:04;100278.69;;;25.90;84.50
45813;BME280;31519;45.408;10.962;2023-07-22T02:41:32;100289.94;;;25.96;84.62
45813;BME280;31519;45.408;10.962;2023-07-22T02:44:00;100292.75;;;25.62;86.16
45813;BME280;31519;45.408;10.962;2023-07-22T02:46:28;100298.84;;;25.43;87.86
45813;BME280;31519;45.408;10.962;2023-07-22T02:48:57;100290.22;;;25.44;87.14
45813;BME280;31519;45.408;10.962;2023-07-22T02:51:27;100294.25;;;25.67;85.77
45813;BME280;31519;45.408;10.962;2023-07-22T02:53:54;100296.69;;;25.57;86.35
45813;BME280;31519;45.408;10.962;2023-07-22T02:56:23;100299.22;;;25.41;86.89
45813;BME280;31519;45.408;10.962;2023-07-22T02:58:52;100297.91;;;25.23;87.95
45813;BME280;31519;45.408;10.962;2023-07-22T03:01:20;100305.25;;;25.29;87.54
45813;BME280;31519;45.408;10.962;2023-07-22T03:03:48;100310.84;;;25.15;86.04
45813;BME280;31519;45.408;10.962;2023-07-22T03:06:16;100309.25;;;25.17;84.08
45813;BME280;31519;45.408;10.962;2023-07-22T03:08:44;100324.16;;;25.09;83.80
45813;BME280;31519;45.408;10.962;2023-07-22T03:11:12;100332.84;;;25.31;81.69
45813;BME280;31519;45.408;10.962;2023-07-22T03:13:40;100342.63;;;25.29;81.26
45813;BME280;31519;45.408;10.962;2023-07-22T03:16:08;100349.94;;;25.35;81.68
45813;BME280;31519;45.408;10.962;2023-07-22T03:18:37;100345.50;;;25.14;81.34
45813;BME280;31519;45.408;10.962;2023-07-22T03:21:07;100347.09;;;25.46;80.96
45813;BME280;31519;45.408;10.962;2023-07-22T03:23:36;100351.31;;;25.16;83.56
45813;BME280;31519;45.408;10.962;2023-07-22T03:26:05;100353.88;;;24.97;85.03
45813;BME280;31519;45.408;10.962;2023-07-22T03:28:32;100361.56;;;25.05;85.65
45813;BME280;31519;45.408;10.962;2023-07-22T03:31:01;100358.13;;;25.01;85.08
45813;BME280;31519;45.408;10.962;2023-07-22T03:33:29;100356.53;;;25.04;84.80
45813;BME280;31519;45.408;10.962;2023-07-22T03:35:57;100359.34;;;24.97;85.03
45813;BME280;31519;45.408;10.962;2023-07-22T03:38:25;100363.13;;;25.06;84.51
45813;BME280;31519;45.408;10.962;2023-07-22T03:40:54;100363.25;;;24.92;85.55
45813;BME280;31519;45.408;10.962;2023-07-22T03:43:22;100358.16;;;25.32;83.61
45813;BME280;31519;45.408;10.962;2023-07-22T03:45:50;100358.69;;;25.20;83.33
45813;BME280;31519;45.408;10.962;2023-07-22T03:48:18;100362.38;;;25.02;85.59
45813;BME280;31519;45.408;10.962;2023-07-22T03:50:46;100361.09;;;25.14;85.07
45813;BME280;31519;45.408;10.962;2023-07-22T03:53:14;100368.78;;;25.23;84.51
45813;BME280;31519;45.408;10.962;2023-07-22T03:55:42;100360.53;;;25.30;83.26
45813;BME280;31519;45.408;10.962;2023-07-22T03:58:10;100356.63;;;25.31;82.82
45813;BME280;31519;45.408;10.962;2023-07-22T04:00:38;100361.47;;;25.16;84.02
45813;BME280;31519;45.408;10.962;2023-07-22T04:03:06;100364.94;;;25.16;84.68
45813;BME280;31519;45.408;10.962;2023-07-22T04:05:35;100365.41;;;25.45;83.20
45813;BME280;31519;45.408;10.962;2023-07-22T04:08:02;100373.94;;;25.13;85.43
45813;BME280;31519;45.408;10.962;2023-07-22T04:10:31;100370.25;;;25.31;84.86
45813;BME280;31519;45.408;10.962;2023-07-22T04:12:59;100369.59;;;25.57;82.87
45813;BME280;31519;45.408;10.962;2023-07-22T04:15:27;100372.03;;;25.48;83.12
45813;BME280;31519;45.408;10.962;2023-07-22T04:17:55;100374.09;;;25.37;84.49
45813;BME280;31519;45.408;10.962;2023-07-22T04:20:23;100381.59;;;25.63;83.84
45813;BME280;31519;45.408;10.962;2023-07-22T04:22:52;100386.78;;;25.50;84.76
45813;BME280;31519;45.408;10.962;2023-07-22T04:25:20;100388.38;;;25.48;84.44
45813;BME280;31519;45.408;10.962;2023-07-22T04:27:48;100388.97;;;25.29;85.55
45813;BME280;31519;45.408;10.962;2023-07-22T04:30:16;100393.84;;;25.44;85.83
45813;BME280;31519;45.408;10.962;2023-07-22T04:32:48;100397.16;;;25.29;86.65
45813;BME280;31519;45.408;10.962;2023-07-22T04:35:17;100397.78;;;25.43;85.67
45813;BME280;31519;45.408;10.962;2023-07-22T04:37:45;100393.31;;;25.60;85.30
45813;BME280;31519;45.408;10.962;2023-07-22T04:40:13;100390.50;;;25.67;84.57
45813;BME280;31519;45.408;10.962;2023-07-22T04:42:44;100397.59;;;25.61;84.51
45813;BME280;31519;45.408;10.962;2023-07-22T04:45:12;100393.31;;;25.60;85.84
45813;BME280;31519;45.408;10.962;2023-07-22T04:47:41;100401.50;;;25.60;85.12
45813;BME280;31519;45.408;10.962;2023-07-22T04:50:12;100404.25;;;25.90;83.72
45813;BME280;31519;45.408;10.962;2023-07-22T04:52:42;100406.84;;;25.71;84.35
45813;BME280;31519;45.408;10.962;2023-07-22T04:55:11;100401.50;;;25.60;83.69
45813;BME280;31519;45.408;10.962;2023-07-22T04:57:39;100402.97;;;25.68;83.34
45813;BME280;31519;45.408;10.962;2023-07-22T05:00:13;100413.81;;;25.75;82.53
45813;BME280;31519;45.408;10.962;2023-07-22T05:02:43;100425.66;;;25.92;81.66
45813;BME280;31519;45.408;10.962;2023-07-22T05:05:12;100420.25;;;25.88;81.79
45813;BME280;31519;45.408;10.962;2023-07-22T05:07:40;100435.75;;;25.98;80.75
45813;BME280;31519;45.408;10.962;2023-07-22T05:10:10;100435.06;;;26.21;79.97
45813;BME280;31519;45.408;10.962;2023-07-22T05:12:40;100434.63;;;25.92;80.87
45813;BME280;31519;45.408;10.962;2023-07-22T05:15:10;100429.63;;;25.87;81.16
45813;BME280;31519;45.408;10.962;2023-07-22T05:17:38;100432.19;;;26.01;80.59
45813;BME280;31519;45.408;10.962;2023-07-22T05:20:06;100436.63;;;25.88;79.67
45813;BME280;31519;45.408;10.962;2023-07-22T05:22:37;100428.16;;;26.10;80.26
45813;BME280;31519;45.408;10.962;2023-07-22T05:25:05;100434.13;;;26.01;80.31
45813;BME280;31519;45.408;10.962;2023-07-22T05:27:34;100435.78;;;26.25;77.97
45813;BME280;31519;45.408;10.962;2023-07-22T05:30:02;100437.81;;;26.21;78.12
45813;BME280;31519;45.408;10.962;2023-07-22T05:32:36;100433.50;;;26.20;77.80
45813;BME280;31519;45.408;10.962;2023-07-22T05:35:05;100434.00;;;26.12;78.33
45813;BME280;31519;45.408;10.962;2023-07-22T05:37:33;100441.00;;;26.43;76.88
45813;BME280;31519;45.408;10.962;2023-07-22T05:40:01;100444.69;;;26.29;76.20
45813;BME280;31519;45.408;10.962;2023-07-22T05:42:29;100441.59;;;26.27;76.38
45813;BME280;31519;45.408;10.962;2023-07-22T05:44:57;100447.44;;;26.29;75.34
45813;BME280;31519;45.408;10.962;2023-07-22T05:47:26;100441.41;;;26.41;75.07
45813;BME280;31519;45.408;10.962;2023-07-22T05:49:54;100444.19;;;26.38;76.27
45813;BME280;31519;45.408;10.962;2023-07-22T05:52:22;100451.09;;;26.46;76.11
45813;BME280;31519;45.408;10.962;2023-07-22T05:54:50;100461.66;;;26.44;76.56
45813;BME280;31519;45.408;10.962;2023-07-22T05:57:18;100467.53;;;26.42;77.05
45813;BME280;31519;45.408;10.962;2023-07-22T05:59:46;100452.38;;;26.65;75.87
45813;BME280;31519;45.408;10.962;2023-07-22T06:02:38;100450.34;;;26.69;75.44
45813;BME280;31519;45.408;10.962;2023-07-22T06:05:06;100448.19;;;26.57;73.45
45813;BME280;31519;45.408;10.962;2023-07-22T06:07:34;100457.13;;;26.61;72.60
45813;BME280;31519;45.408;10.962;2023-07-22T06:10:03;100455.75;;;26.72;71.77
45813;BME280;31519;45.408;10.962;2023-07-22T06:12:31;100461.88;;;26.57;70.06
45813;BME280;31519;45.408;10.962;2023-07-22T06:14:59;100461.97;;;26.76;70.33
45813;BME280;31519;45.408;10.962;2023-07-22T06:17:27;100461.03;;;27.10;70.00
45813;BME280;31519;45.408;10.962;2023-07-22T06:19:55;100464.53;;;27.10;69.92
45813;BME280;31519;45.408;10.962;2023-07-22T06:22:23;100463.09;;;27.25;70.29
45813;BME280;31519;45.408;10.962;2023-07-22T06:24:51;100463.22;;;27.18;69.58
45813;BME280;31519;45.408;10.962;2023-07-22T06:27:19;100458.63;;;27.35;67.64
45813;BME280;31519;45.408;10.962;2023-07-22T06:29:48;100463.09;;;27.49;66.39
45813;BME280;31519;45.408;10.962;2023-07-22T06:32:15;100466.13;;;27.31;67.29
45813;BME280;31519;45.408;10.962;2023-07-22T06:34:44;100471.25;;;27.52;66.84
45813;BME280;31519;45.408;10.962;2023-07-22T06:37:11;100471.59;;;27.31;67.79
45813;BME280;31519;45.408;10.962;2023-07-22T06:39:40;100470.63;;;27.41;68.87
45813;BME280;31519;45.408;10.962;2023-07-22T06:42:08;100471.59;;;27.74;67.46
45813;BME280;31519;45.408;10.962;2023-07-22T06:44:36;100464.38;;;27.84;66.14
45813;BME280;31519;45.408;10.962;2023-07-22T06:47:04;100467.44;;;28.25;65.07
45813;BME280;31519;45.408;10.962;2023-07-22T06:49:32;100465.94;;;28.40;63.97
45813;BME280;31519;45.408;10.962;2023-07-22T06:52:00;100476.50;;;28.22;65.19
45813;BME280;31519;45.408;10.962;2023-07-22T06:54:29;100472.22;;;28.21;64.80
45813;BME280;31519;45.408;10.962;2023-07-22T06:56:57;100486.19;;;28.27;64.61
45813;BME280;31519;45.408;10.962;2023-07-22T06:59:25;100483.09;;;27.65;65.98
45813;BME280;31519;45.408;10.962;2023-07-22T07:01:54;100476.88;;;27.18;66.10
45813;BME280;31519;45.408;10.962;2023-07-22T07:04:22;100483.28;;;27.12;68.97
45813;BME280;31519;45.408;10.962;2023-07-22T07:06:50;100484.47;;;27.77;66.02
45813;BME280;31519;45.408;10.962;2023-07-22T07:09:18;100484.72;;;28.22;62.53
45813;BME280;31519;45.408;10.962;2023-07-22T07:11:46;100490.63;;;28.20;61.84
45813;BME280;31519;45.408;10.962;2023-07-22T07:14:14;100490.38;;;28.83;61.19
45813;BME280;31519;45.408;10.962;2023-07-22T07:16:42;100493.50;;;28.49;61.36
45813;BME280;31519;45.408;10.962;2023-07-22T07:19:11;100489.13;;;29.04;60.45
45813;BME280;31519;45.408;10.962;2023-07-22T07:21:39;100487.84;;;29.54;57.90
45813;BME280;31519;45.408;10.962;2023-07-22T07:24:07;100488.56;;;29.99;56.27
45813;BME280;31519;45.408;10.962;2023-07-22T07:26:35;100491.50;;;29.34;57.15
45813;BME280;31519;45.408;10.962;2023-07-22T07:29:03;100496.03;;;29.41;58.45
45813;BME280;31519;45.408;10.962;2023-07-22T07:31:31;100496.47;;;29.23;57.88
45813;BME280;31519;45.408;10.962;2023-07-22T07:34:00;100502.09;;;28.68;57.89
45813;BME280;31519;45.408;10.962;2023-07-22T07:36:28;100501.41;;;28.63;56.96
45813;BME280;31519;45.408;10.962;2023-07-22T07:38:57;100494.97;;;28.70;57.00
45813;BME280;31519;45.408;10.962;2023-07-22T07:41:25;100507.72;;;28.44;57.99
45813;BME280;31519;45.408;10.962;2023-07-22T07:43:53;100514.25;;;28.67;57.44
45813;BME280;31519;45.408;10.962;2023-07-22T07:46:22;100507.94;;;28.34;57.80
45813;BME280;31519;45.408;10.962;2023-07-22T07:48:55;100514.13;;;29.06;56.05
45813;BME280;31519;45.408;10.962;2023-07-22T07:51:24;100506.72;;;29.51;55.21
45813;BME280;31519;45.408;10.962;2023-07-22T07:53:53;100510.03;;;29.30;54.80
45813;BME280;31519;45.408;10.962;2023-07-22T07:56:22;100499.31;;;29.65;51.38
45813;BME280;31519;45.408;10.962;2023-07-22T07:58:52;100512.09;;;30.13;49.71
45813;BME280;31519;45.408;10.962;2023-07-22T08:01:20;100506.34;;;29.94;51.15
45813;BME280;31519;45.408;10.962;2023-07-22T08:03:49;100509.63;;;29.61;52.82
45813;BME280;31519;45.408;10.962;2023-07-22T08:06:17;100507.50;;;29.20;53.90
45813;BME280;31519;45.408;10.962;2023-07-22T08:08:47;100506.00;;;29.19;54.39
45813;BME280;31519;45.408;10.962;2023-07-22T08:11:15;100503.41;;;29.28;52.92
45813;BME280;31519;45.408;10.962;2023-07-22T08:13:43;100499.59;;;29.83;52.91
45813;BME280;31519;45.408;10.962;2023-07-22T08:16:12;100503.31;;;30.05;51.04
45813;BME280;31519;45.408;10.962;2023-07-22T08:18:41;100516.34;;;29.27;52.31
45813;BME280;31519;45.408;10.962;2023-07-22T08:21:09;100518.88;;;29.96;49.64
45813;BME280;31519;45.408;10.962;2023-07-22T08:23:37;100507.59;;;29.77;51.16
45813;BME280;31519;45.408;10.962;2023-07-22T08:26:05;100514.63;;;30.07;50.60
45813;BME280;31519;45.408;10.962;2023-07-22T08:28:34;100517.38;;;29.49;51.67
45813;BME280;31519;45.408;10.962;2023-07-22T08:31:02;100514.28;;;30.05;50.54
45813;BME280;31519;45.408;10.962;2023-07-22T08:33:31;100508.22;;;29.98;50.33
45813;BME280;31519;45.408;10.962;2023-07-22T08:36:08;100513.81;;;30.73;48.15
45813;BME280;31519;45.408;10.962;2023-07-22T08:38:37;100514.25;;;30.72;48.80
45813;BME280;31519;45.408;10.962;2023-07-22T08:41:05;100510.75;;;30.84;48.09
45813;BME280;31519;45.408;10.962;2023-07-22T08:43:33;100519.22;;;31.37;47.39
45813;BME280;31519;45.408;10.962;2023-07-22T08:46:02;100521.72;;;30.71;48.40
45813;BME280;31519;45.408;10.962;2023-07-22T08:48:31;100514.56;;;30.36;48.21
45813;BME280;31519;45.408;10.962;2023-07-22T08:51:03;100510.78;;;30.05;48.61
45813;BME280;31519;45.408;10.962;2023-07-22T08:53:35;100516.66;;;31.20;48.04
45813;BME280;31519;45.408;10.962;2023-07-22T08:56:04;100505.31;;;31.96;46.59
45813;BME280;31519;45.408;10.962;2023-07-22T08:58:32;100511.19;;;30.83;47.46
45813;BME280;31519;45.408;10.962;2023-07-22T09:01:01;100501.38;;;31.76;47.04
45813;BME280;31519;45.408;10.962;2023-07-22T09:03:30;100504.59;;;32.27;45.06
45813;BME280;31519;45.408;10.962;2023-07-22T09:05:58;100500.44;;;32.22;44.61
45813;BME280;31519;45.408;10.962;2023-07-22T09:08:26;100503.78;;;31.95;45.36
45813;BME280;31519;45.408;10.962;2023-07-22T09:10:54;100511.38;;;31.13;46.56
45813;BME280;31519;45.408;10.962;2023-07-22T09:13:23;100509.31;;;31.74;46.75
45813;BME280;31519;45.408;10.962;2023-07-22T09:15:52;100508.31;;;30.48;47.98
45813;BME280;31519;45.408;10.962;2023-07-22T09:18:21;100512.94;;;31.02;48.37
45813;BME280;31519;45.408;10.962;2023-07-22T09:20:49;100519.19;;;31.62;47.44
45813;BME280;31519;45.408;10.962;2023-07-22T09:23:17;100506.63;;;31.61;45.95
45813;BME280;31519;45.408;10.962;2023-07-22T09:25:44;100500.28;;;32.17;45.13
45813;BME280;31519;45.408;10.962;2023-07-22T09:28:13;100509.34;;;32.57;43.68
45813;BME280;31519;45.408;10.962;2023-07-22T09:30:40;100498.88;;;32.52;44.22
45813;BME280;31519;45.408;10.962;2023-07-22T09:33:21;100489.41;;;32.53;44.80
45813;BME280;31519;45.408;10.962;2023-07-22T09:35:50;100482.28;;;32.34;44.72
45813;BME280;31519;45.408;10.962;2023-07-22T09:38:27;100478.75;;;32.33;43.74
45813;BME280;31519;45.408;10.962;2023-07-22T09:40:55;100480.38;;;32.62;44.94
45813;BME280;31519;45.408;10.962;2023-07-22T09:43:23;100483.72;;;32.47;44.89
45813;BME280;31519;45.408;10.962;2023-07-22T09:45:51;100488.31;;;32.50;44.57
45813;BME280;31519;45.408;10.962;2023-07-22T09:48:21;100480.66;;;31.93;46.34
45813;BME280;31519;45.408;10.962;2023-07-22T09:50:55;100481.84;;;31.61;46.69
45813;BME280;31519;45.408;10.962;2023-07-22T09:53:23;100485.69;;;31.29;47.83
45813;BME280;31519;45.408;10.962;2023-07-22T09:55:52;100485.03;;;31.59;47.64
45813;BME280;31519;45.408;10.962;2023-07-22T09:58:20;100473.78;;;31.66;47.36
45813;BME280;31519;45.408;10.962;2023-07-22T10:00:52;100476.38;;;31.48;47.64
45813;BME280;31519;45.408;10.962;2023-07-22T10:03:20;100497.38;;;31.08;48.20
45813;BME280;31519;45.408;10.962;2023-07-22T10:05:51;100506.84;;;31.19;48.79
45813;BME280;31519;45.408;10.962;2023-07-22T10:08:20;100490.97;;;31.23;49.36
45813;BME280;31519;45.408;10.962;2023-07-22T10:10:51;100485.81;;;31.13;48.34
45813;BME280;31519;45.408;10.962;2023-07-22T10:13:21;100491.97;;;31.30;48.82
45813;BME280;31519;45.408;10.962;2023-07-22T10:15:49;100511.66;;;31.62;48.48
45813;BME280;31519;45.408;10.962;2023-07-22T10:18:18;100529.84;;;31.60;49.30
45813;BME280;31519;45.408;10.962;2023-07-22T10:20:47;100512.06;;;31.39;48.14
45813;BME280;31519;45.408;10.962;2023-07-22T10:23:17;100503.69;;;31.43;49.97
45813;BME280;31519;45.408;10.962;2023-07-22T10:25:45;100511.69;;;31.15;50.98
45813;BME280;31519;45.408;10.962;2023-07-22T10:28:15;100532.84;;;30.68;53.17
45813;BME280;31519;45.408;10.962;2023-07-22T10:30:42;100526.22;;;30.91;53.74
45813;BME280;31519;45.408;10.962;2023-07-22T10:33:11;100527.47;;;30.64;55.30
45813;BME280;31519;45.408;10.962;2023-07-22T10:35:42;100500.69;;;30.39;56.96
45813;BME280;31519;45.408;10.962;2023-07-22T10:38:13;100512.16;;;30.38;58.56
45813;BME280;31519;45.408;10.962;2023-07-22T10:40:45;100515.50;;;30.04;59.59
45813;BME280;31519;45.408;10.962;2023-07-22T10:43:15;100524.84;;;29.78;62.00
45813;BME280;31519;45.408;10.962;2023-07-22T10:45:45;100536.38;;;29.57;63.64
45813;BME280;31519;45.408;10.962;2023-07-22T10:48:16;100563.00;;;28.95;66.34
45813;BME280;31519;45.408;10.962;2023-07-22T10:50:45;100563.22;;;28.48;69.59
45813;BME280;31519;45.408;10.962;2023-07-22T10:53:20;100556.84;;;28.35;73.46
45813;BME280;31519;45.408;10.962;2023-07-22T11:01:22;100558.44;;;28.33;73.48
45813;BME280;31519;45.408;10.962;2023-07-22T11:04:06;100557.03;;;28.44;74.95
45813;BME280;31519;45.408;10.962;2023-07-22T11:06:36;100549.22;;;28.62;75.35
45813;BME280;31519;45.408;10.962;2023-07-22T11:09:05;100513.53;;;28.82;75.90
45813;BME280;31519;45.408;10.962;2023-07-22T11:11:34;100531.28;;;28.58;77.12
45813;BME280;31519;45.408;10.962;2023-07-22T11:17:04;100540.22;;;28.26;80.06
45813;BME280;31519;45.408;10.962;2023-07-22T11:19:32;100518.47;;;28.55;81.04
45813;BME280;31519;45.408;10.962;2023-07-22T11:22:01;100514.94;;;28.54;81.38
45813;BME280;31519;45.408;10.962;2023-07-22T11:24:29;100505.50;;;28.55;80.51
45813;BME280;31519;45.408;10.962;2023-07-22T11:26:57;100465.56;;;28.38;81.42
45813;BME280;31519;45.408;10.962;2023-07-22T11:29:25;100472.03;;;28.64;78.76
45813;BME280;31519;45.408;10.962;2023-07-22T11:31:53;100488.50;;;28.80;76.18
45813;BME280;31519;45.408;10.962;2023-07-22T11:34:22;100486.50;;;28.64;75.15
45813;BME280;31519;45.408;10.962;2023-07-22T11:36:51;100483.72;;;28.84;72.79
45813;BME280;31519;45.408;10.962;2023-07-22T11:39:23;100482.78;;;28.91;72.17
45813;BME280;31519;45.408;10.962;2023-07-22T11:41:51;100488.56;;;29.25;71.04
45813;BME280;31519;45.408;10.962;2023-07-22T11:44:21;100493.81;;;29.93;70.27
45813;BME280;31519;45.408;10.962;2023-07-22T11:47:07;100498.66;;;30.69;65.67
45813;BME280;31519;45.408;10.962;2023-07-22T11:49:36;100498.78;;;31.25;63.54
45813;BME280;31519;45.408;10.962;2023-07-22T11:52:06;100498.22;;;31.86;61.71
45813;BME280;31519;45.408;10.962;2023-07-22T11:54:40;100492.41;;;31.84;60.03
45813;BME280;31519;45.408;10.962;2023-07-22T11:57:09;100488.50;;;31.94;58.71
45813;BME280;31519;45.408;10.962;2023-07-22T11:59:38;100470.09;;;31.91;56.63
45813;BME280;31519;45.408;10.962;2023-07-22T12:02:06;100476.44;;;32.32;56.00
45813;BME280;31519;45.408;10.962;2023-07-22T12:04:35;100469.00;;;32.50;53.88
45813;BME280;31519;45.408;10.962;2023-07-22T12:07:03;100466.34;;;32.87;52.71
45813;BME280;31519;45.408;10.962;2023-07-22T12:09:32;100462.28;;;32.61;51.55
45813;BME280;31519;45.408;10.962;2023-07-22T12:11:59;100463.00;;;32.92;50.38
45813;BME280;31519;45.408;10.962;2023-07-22T12:14:34;100466.22;;;32.90;49.35
45813;BME280;31519;45.408;10.962;2023-07-22T12:17:03;100451.88;;;33.41;47.91
45813;BME280;31519;45.408;10.962;2023-07-22T12:19:35;100455.25;;;33.18;48.36
45813;BME280;31519;45.408;10.962;2023-07-22T12:22:03;100455.84;;;33.40;47.03
45813;BME280;31519;45.408;10.962;2023-07-22T12:24:31;100449.81;;;33.78;45.38
45813;BME280;31519;45.408;10.962;2023-07-22T12:26:59;100460.66;;;34.09;45.93
45813;BME280;31519;45.408;10.962;2023-07-22T12:29:28;100461.75;;;34.02;43.17
45813;BME280;31519;45.408;10.962;2023-07-22T12:31:55;100467.72;;;34.10;41.56
45813;BME280;31519;45.408;10.962;2023-07-22T12:34:24;100454.00;;;34.15;42.22
45813;BME280;31519;45.408;10.962;2023-07-22T12:36:51;100442.38;;;34.44;39.99
45813;BME280;31519;45.408;10.962;2023-07-22T12:39:20;100431.78;;;34.19;40.58
45813;BME280;31519;45.408;10.962;2023-07-22T12:41:47;100421.69;;;33.89;40.15
45813;BME280;31519;45.408;10.962;2023-07-22T12:44:16;100419.16;;;34.18;40.15
45813;BME280;31519;45.408;10.962;2023-07-22T12:46:43;100415.09;;;33.95;39.09
45813;BME280;31519;45.408;10.962;2023-07-22T12:49:12;100420.72;;;34.19;39.90
45813;BME280;31519;45.408;10.962;2023-07-22T12:51:39;100408.66;;;34.31;39.04
45813;BME280;31519;45.408;10.962;2023-07-22T12:54:08;100427.75;;;34.11;39.09
45813;BME280;31519;45.408;10.962;2023-07-22T12:56:35;100427.97;;;34.40;39.46